Time;durP1;ratioP1;P1;durP2;ratioP2;P2;SDS_P1;SDS_P2;PMS_P1;PMS_P2;Temp;Humidity;BMP_temperature;BMP_pressure;BME280_temperature;BME280_humidity;BME280_pressure;Samples;Min_cycle;Max_cycle;Signal;HPM_P1;HPM_P2
2023/01/24 00:00:49;;;;;;;29.20;14.15;;;;;;;2.00;100.00;103583.25;5054430;28;20395;-74
2023/01/24 00:03:15;;;;;;;28.48;14.55;;;;;;;1.97;100.00;103580.38;5052758;28;20087;-74
2023/01/24 00:05:43;;;;;;;25.92;14.05;;;;;;;1.99;100.00;103588.31;5069592;28;20029;-74
2023/01/24 00:08:12;;;;;;;26.00;14.32;;;;;;;1.95;100.00;103584.47;5056862;28;20051;-74
2023/01/24 00:10:37;;;;;;;26.27;15.30;;;;;;;1.91;100.00;103579.75;5053555;28;20043;-73
2023/01/24 00:13:02;;;;;;;25.65;13.98;;;;;;;1.92;100.00;103578.09;5059242;28;20059;-75
2023/01/24 00:15:28;;;;;;;25.35;14.38;;;;;;;1.95;100.00;103578.38;5054487;28;20029;-74
2023/01/24 00:17:53;;;;;;;23.95;13.68;;;;;;;1.94;100.00;103577.50;5053584;28;20060;-74
2023/01/24 00:20:19;;;;;;;27.60;15.07;;;;;;;1.95;100.00;103581.88;5058086;28;20025;-74
2023/01/24 00:22:44;;;;;;;24.60;13.57;;;;;;;1.97;100.00;103579.47;5061149;28;20017;-74
2023/01/24 00:25:10;;;;;;;25.50;14.13;;;;;;;1.97;100.00;103574.28;5069583;28;20112;-74
2023/01/24 00:27:35;;;;;;;24.50;14.20;;;;;;;1.96;100.00;103567.25;5053010;28;20538;-73
2023/01/24 00:30:02;;;;;;;26.35;14.80;;;;;;;1.94;100.00;103582.69;5051856;28;20048;-72
2023/01/24 00:32:28;;;;;;;26.23;14.48;;;;;;;1.99;100.00;103573.66;5056628;28;21964;-74
2023/01/24 00:34:53;;;;;;;24.52;13.50;;;;;;;1.98;100.00;103578.66;5057021;28;20103;-74
2023/01/24 00:37:18;;;;;;;27.05;15.65;;;;;;;1.98;100.00;103577.00;5053534;28;20120;-74
2023/01/24 00:39:44;;;;;;;26.05;15.85;;;;;;;1.95;100.00;103581.88;5055132;28;20033;-74
2023/01/24 00:42:09;;;;;;;26.10;14.48;;;;;;;1.92;100.00;103570.31;5054209;28;20021;-75
2023/01/24 00:44:34;;;;;;;28.50;14.45;;;;;;;1.84;100.00;103570.47;5054494;28;20029;-73
2023/01/24 00:46:59;;;;;;;26.58;15.05;;;;;;;1.82;100.00;103566.81;5058384;28;20033;-74
2023/01/24 00:49:25;;;;;;;26.65;14.57;;;;;;;1.85;100.00;103563.63;5057704;28;20090;-74
2023/01/24 00:51:50;;;;;;;28.80;14.60;;;;;;;1.86;100.00;103560.25;5057897;28;20082;-74
2023/01/24 00:54:16;;;;;;;27.33;14.23;;;;;;;1.88;100.00;103561.31;5069490;28;20059;-74
2023/01/24 00:56:41;;;;;;;25.02;14.60;;;;;;;1.87;100.00;103564.66;5060077;28;20044;-74
2023/01/24 00:59:06;;;;;;;25.10;14.15;;;;;;;1.86;100.00;103555.06;5054377;28;20032;-74
2023/01/24 01:01:32;;;;;;;24.90;14.93;;;;;;;1.84;100.00;103561.78;5052505;28;20476;-72
2023/01/24 01:03:57;;;;;;;24.08;14.10;;;;;;;1.75;100.00;103566.06;5059456;28;20553;-74
2023/01/24 01:06:24;;;;;;;26.23;14.25;;;;;;;1.84;100.00;103556.59;5052572;28;22218;-73
2023/01/24 01:08:50;;;;;;;25.75;14.90;;;;;;;1.81;100.00;103566.69;5053521;28;20045;-73
2023/01/24 01:11:16;;;;;;;27.67;15.60;;;;;;;1.82;100.00;103555.53;5054280;28;20033;-73
2023/01/24 01:13:41;;;;;;;25.05;14.65;;;;;;;1.83;100.00;103549.56;5053669;28;20027;-76
2023/01/24 01:16:09;;;;;;;28.23;15.57;;;;;;;1.80;100.00;103544.06;5060415;28;20078;-74
2023/01/24 01:18:35;;;;;;;27.20;15.88;;;;;;;1.79;100.00;103553.56;5062817;28;20480;-74
2023/01/24 01:21:01;;;;;;;25.40;15.65;;;;;;;1.77;100.00;103551.59;5070319;28;20032;-74
2023/01/24 01:23:26;;;;;;;26.77;15.48;;;;;;;1.76;100.00;103557.53;5055411;28;20032;-74
2023/01/24 01:25:52;;;;;;;26.88;15.35;;;;;;;1.72;100.00;103550.22;5061441;28;20044;-74
2023/01/24 01:28:17;;;;;;;24.02;14.73;;;;;;;1.79;100.00;103548.38;5060601;28;20397;-74
2023/01/24 01:30:43;;;;;;;24.45;14.07;;;;;;;1.77;100.00;103547.28;5055781;28;20040;-73
2023/01/24 01:33:08;;;;;;;26.98;14.82;;;;;;;1.76;100.00;103553.25;5051537;28;20070;-74
2023/01/24 01:35:34;;;;;;;26.27;15.52;;;;;;;1.72;100.00;103545.03;5053144;28;20025;-74
2023/01/24 01:37:59;;;;;;;23.70;13.77;;;;;;;1.78;100.00;103550.81;5051334;28;20025;-73
2023/01/24 01:40:24;;;;;;;26.00;15.18;;;;;;;1.77;100.00;103551.59;5061142;28;20032;-74
2023/01/24 01:42:53;;;;;;;27.35;15.10;;;;;;;1.82;100.00;103547.75;5065968;28;20028;-74
2023/01/24 01:45:37;;;;;;;27.35;15.75;;;;;;;1.78;100.00;103550.81;5049522;28;20025;-73
2023/01/24 01:48:29;;;;;;;24.05;14.23;;;;;;;1.75;100.00;103554.03;5052330;28;20527;-75
2023/01/24 01:51:12;;;;;;;27.70;15.02;;;;;;;1.78;100.00;103545.63;5050559;28;20393;-72
2023/01/24 01:53:46;;;;;;;23.25;14.35;;;;;;;1.78;100.00;103556.00;5050755;28;20418;-73
2023/01/24 01:56:23;;;;;;;25.45;14.25;;;;;;;1.77;100.00;103541.19;5047520;28;20025;-73
2023/01/24 01:58:49;;;;;;;24.60;13.88;;;;;;;1.77;100.00;103543.78;5056577;28;20052;-73
2023/01/24 02:01:14;;;;;;;27.77;14.65;;;;;;;1.74;100.00;103544.41;5060495;28;20059;-75
2023/01/24 02:03:46;;;;;;;25.23;14.05;;;;;;;1.72;100.00;103545.03;5052453;28;20084;-75
2023/01/24 02:06:23;;;;;;;23.85;13.43;;;;;;;1.72;100.00;103539.84;5057115;28;20063;-74
2023/01/24 02:08:51;;;;;;;23.70;13.65;;;;;;;1.73;100.00;103537.38;5060869;28;20032;-74
2023/01/24 02:17:02;;;;;;;22.60;13.88;;;;;;;1.64;100.00;103532.22;4968739;28;20074;-74
2023/01/24 02:19:34;;;;;;;26.75;13.63;;;;;;;1.71;100.00;103532.81;5029558;28;20049;-75
2023/01/24 02:22:12;;;;;;;22.70;15.02;;;;;;;1.69;100.00;103535.25;5051380;28;20032;-73
2023/01/24 02:24:43;;;;;;;24.50;12.98;;;;;;;1.72;100.00;103535.53;5051718;28;20028;-74
2023/01/24 02:27:08;;;;;;;23.15;12.93;;;;;;;1.71;100.00;103532.81;5049145;28;20075;-73
2023/01/24 02:29:34;;;;;;;27.33;14.88;;;;;;;1.72;100.00;103540.75;5052250;28;20029;-74
2023/01/24 02:32:02;;;;;;;24.77;14.50;;;;;;;1.73;100.00;103534.78;5050953;28;20039;-73
2023/01/24 02:34:29;;;;;;;25.05;14.20;;;;;;;1.75;100.00;103541.06;5055139;28;20025;-74
2023/01/24 02:36:58;;;;;;;25.42;13.38;;;;;;;1.76;100.00;103552.34;5053909;28;20052;-74
2023/01/24 02:39:30;;;;;;;27.35;13.88;;;;;;;1.78;100.00;103543.94;5052062;28;20021;-74
2023/01/24 02:42:26;;;;;;;26.77;14.18;;;;;;;1.77;100.00;103538.59;5049862;28;20021;-74
2023/01/24 02:45:18;;;;;;;25.10;14.00;;;;;;;1.76;100.00;103542.84;5044870;28;20036;-74
2023/01/24 02:47:47;;;;;;;23.58;13.68;;;;;;;1.72;100.00;103535.53;5050988;28;20439;-74
2023/01/24 02:50:13;;;;;;;23.63;14.80;;;;;;;1.68;100.00;103533.44;5051221;28;20435;-74
2023/01/24 02:55:24;;;;;;;;;;;;;;;1.72;100.00;103534.66;5051842;28;20039;-73
2023/01/24 02:58:08;;;;;;;28.48;14.80;;;;;;;1.73;100.00;103531.28;5055908;28;19940;-73
2023/01/24 03:00:36;;;;;;;24.30;14.43;;;;;;;1.65;100.00;103528.84;5071129;28;20043;-74
2023/01/24 03:03:02;;;;;;;26.50;14.43;;;;;;;1.62;100.00;103528.56;5076041;28;20068;-74
2023/01/24 03:05:39;;;;;;;25.85;14.65;;;;;;;1.63;100.00;103530.41;5058521;28;20021;-73
2023/01/24 03:08:08;;;;;;;29.20;15.80;;;;;;;1.60;100.00;103527.53;5053736;28;20025;-73
2023/01/24 03:10:34;;;;;;;29.98;15.02;;;;;;;1.60;100.00;103524.00;5054575;28;20408;-73
2023/01/24 03:34:53;;;;;;;;;;;;;;;1.56;100.00;103506.28;5063733;28;20032;-74
2023/01/24 03:40:14;;;;;;;27.48;15.10;;;;;;;1.50;100.00;103515.31;5010871;28;20034;-75
2023/01/24 03:42:47;;;;;;;28.73;15.43;;;;;;;1.52;100.00;103525.88;5037709;28;20389;-74
2023/01/24 03:45:18;;;;;;;26.40;15.77;;;;;;;1.52;100.00;103521.56;5049727;28;20029;-73
2023/01/24 03:47:53;;;;;;;27.65;15.30;;;;;;;1.55;100.00;103520.97;5055053;28;20036;-73
2023/01/24 03:53:06;;;;;;;27.40;14.43;;;;;;;1.55;100.00;103520.97;5049873;28;20047;-74
2023/01/24 03:55:31;;;;;;;26.60;15.07;;;;;;;1.52;100.00;103523.28;5048936;28;20483;-75
2023/01/24 03:57:56;;;;;;;27.75;14.20;;;;;;;1.52;100.00;103521.56;5054065;28;20056;-74
2023/01/24 04:00:22;;;;;;;29.58;15.32;;;;;;;1.54;100.00;103524.31;5057334;28;20607;-75
2023/01/24 04:02:47;;;;;;;32.33;17.23;;;;;;;1.58;100.00;103521.25;5055888;28;20436;-74
2023/01/24 04:05:12;;;;;;;29.20;16.60;;;;;;;1.57;100.00;103529.78;5062684;28;20466;-74
2023/01/24 04:07:38;;;;;;;26.83;16.17;;;;;;;1.49;100.00;103526.47;5052897;28;20103;-74
2023/01/24 04:10:04;;;;;;;29.33;16.65;;;;;;;1.49;100.00;103525.53;5052018;28;20032;-73
2023/01/24 04:12:29;;;;;;;28.05;15.02;;;;;;;1.51;100.00;103522.34;5051848;28;20037;-74
2023/01/24 04:14:55;;;;;;;29.45;16.67;;;;;;;1.47;100.00;103527.09;5057534;28;20025;-73
2023/01/24 04:17:20;;;;;;;31.40;17.45;;;;;;;1.49;100.00;103525.53;5065075;28;20120;-73
2023/01/24 04:19:46;;;;;;;30.40;16.67;;;;;;;1.50;100.00;103514.41;5064937;28;20108;-74
2023/01/24 04:22:12;;;;;;;27.13;16.77;;;;;;;1.50;100.00;103522.19;5053355;28;20127;-74
2023/01/24 04:24:37;;;;;;;30.13;17.42;;;;;;;1.53;100.00;103527.66;5053869;28;20040;-75
2023/01/24 04:27:02;;;;;;;29.45;17.38;;;;;;;1.50;100.00;103527.38;5053896;28;20056;-74
2023/01/24 04:29:28;;;;;;;30.25;16.02;;;;;;;1.48;100.00;103523.75;5062527;28;20052;-73
2023/01/24 04:31:53;;;;;;;35.65;17.38;;;;;;;1.46;100.00;103522.66;5061183;28;20036;-73
2023/01/24 04:34:18;;;;;;;33.83;19.17;;;;;;;1.43;100.00;103525.88;5058156;28;20032;-73
2023/01/24 04:36:44;;;;;;;31.48;17.23;;;;;;;1.42;100.00;103528.31;5050137;28;20029;-74
2023/01/24 04:39:09;;;;;;;29.65;17.23;;;;;;;1.43;100.00;103523.28;5058702;28;20043;-73
2023/01/24 04:41:34;;;;;;;31.88;16.83;;;;;;;1.47;100.00;103521.91;5052618;28;20020;-74
2023/01/24 04:44:00;;;;;;;29.58;16.17;;;;;;;1.49;100.00;103525.53;5053300;28;20033;-73
2023/01/24 04:46:27;;;;;;;32.53;17.65;;;;;;;1.49;100.00;103538.50;5051298;28;20677;-74
2023/01/24 04:48:53;;;;;;;31.77;16.38;;;;;;;1.47;100.00;103537.47;5052226;28;20392;-73
2023/01/24 04:51:18;;;;;;;29.40;16.15;;;;;;;1.45;100.00;103536.38;5053667;28;20039;-74
2023/01/24 04:53:43;;;;;;;25.98;15.65;;;;;;;1.52;100.00;103534.56;5053632;28;20036;-74
2023/01/24 04:56:10;;;;;;;29.55;17.20;;;;;;;1.50;100.00;103542.94;5053046;28;20499;-74
2023/01/24 04:58:35;;;;;;;28.58;16.42;;;;;;;1.52;100.00;103536.25;5053361;28;20103;-74
2023/01/24 05:01:01;;;;;;;28.63;17.55;;;;;;;1.44;100.00;103547.53;5062635;28;20032;-74
2023/01/24 05:03:27;;;;;;;31.27;16.42;;;;;;;1.41;100.00;103539.47;5051465;28;20065;-74
2023/01/24 05:05:53;;;;;;;28.42;15.90;;;;;;;1.42;100.00;103543.88;5053338;28;20029;-74
2023/01/24 05:08:20;;;;;;;30.02;15.10;;;;;;;1.39;100.00;103548.78;5051538;28;20025;-74
2023/01/24 05:10:45;;;;;;;30.40;15.60;;;;;;;1.29;100.00;103540.09;5052797;28;20036;-73
2023/01/24 05:13:11;;;;;;;27.98;15.68;;;;;;;1.35;100.00;103538.09;5052416;28;20248;-74
2023/01/24 05:15:36;;;;;;;27.55;14.98;;;;;;;1.27;100.00;103536.44;5061588;28;20025;-74
2023/01/24 05:18:03;;;;;;;24.05;14.30;;;;;;;1.32;100.00;103548.16;5054952;28;20103;-73
2023/01/24 05:20:28;;;;;;;27.83;15.32;;;;;;;1.39;100.00;103544.50;5051902;28;20044;-74
2023/01/24 05:22:57;;;;;;;24.67;15.20;;;;;;;1.40;100.00;103550.59;5051357;28;20025;-73
2023/01/24 05:25:23;;;;;;;26.13;14.32;;;;;;;1.44;100.00;103544.94;5053817;28;20032;-74
2023/01/24 05:27:49;;;;;;;26.00;14.77;;;;;;;1.41;100.00;103543.00;5053017;28;20104;-73
2023/01/24 05:30:15;;;;;;;29.08;15.40;;;;;;;1.39;100.00;103552.28;5053612;28;20603;-73
2023/01/24 05:32:40;;;;;;;25.45;14.43;;;;;;;1.44;100.00;103557.91;5048944;28;20392;-74
2023/01/24 05:35:06;;;;;;;26.10;15.23;;;;;;;1.40;100.00;103548.00;5053006;28;20472;-74
2023/01/24 05:37:32;;;;;;;28.90;15.68;;;;;;;1.34;100.00;103554.44;5054197;28;20020;-75
2023/01/24 05:39:57;;;;;;;25.08;15.57;;;;;;;1.40;100.00;103561.91;5065289;28;20104;-74
2023/01/24 05:42:22;;;;;;;24.48;14.75;;;;;;;1.41;100.00;103557.63;5049883;28;20025;-74
2023/01/24 05:44:48;;;;;;;28.10;15.45;;;;;;;1.40;100.00;103561.91;5055655;28;20112;-73
2023/01/24 05:47:13;;;;;;;29.42;15.52;;;;;;;1.38;100.00;103565.09;5056184;28;20104;-74
2023/01/24 05:49:38;;;;;;;26.60;14.85;;;;;;;1.43;100.00;103558.69;5058505;28;20017;-74
2023/01/24 05:52:04;;;;;;;28.10;15.07;;;;;;;1.42;100.00;103562.03;5053178;28;20078;-74
2023/01/24 05:54:29;;;;;;;25.33;15.48;;;;;;;1.39;100.00;103569.53;5056080;28;20029;-74
2023/01/24 05:56:55;;;;;;;30.75;14.82;;;;;;;1.43;100.00;103558.69;5067594;28;20472;-74
2023/01/24 05:59:20;;;;;;;25.95;14.38;;;;;;;1.40;100.00;103564.50;5062822;28;20144;-74
2023/01/24 06:01:45;;;;;;;26.75;15.60;;;;;;;1.31;100.00;103566.19;5051225;28;20112;-74
2023/01/24 06:04:11;;;;;;;25.42;14.40;;;;;;;1.40;100.00;103561.91;5052136;28;20086;-75
2023/01/24 06:06:36;;;;;;;25.45;14.50;;;;;;;1.32;100.00;103555.94;5055724;28;20024;-73
2023/01/24 06:09:01;;;;;;;26.70;15.00;;;;;;;1.35;100.00;103551.06;5056776;28;20101;-73
2023/01/24 06:11:27;;;;;;;29.13;16.13;;;;;;;1.32;100.00;103555.94;5051218;28;21920;-73
2023/01/24 06:13:55;;;;;;;23.70;14.93;;;;;;;1.35;100.00;103560.53;5056972;28;20472;-74
2023/01/24 06:16:22;;;;;;;26.17;14.95;;;;;;;1.40;100.00;103563.56;5068924;28;20079;-74
2023/01/24 06:18:49;;;;;;;29.73;14.35;;;;;;;1.40;100.00;103566.16;5049702;28;20044;-74
2023/01/24 06:21:33;;;;;;;26.80;15.65;;;;;;;1.38;100.00;103562.50;5050138;28;20025;-74
2023/01/24 06:23:59;;;;;;;28.00;15.38;;;;;;;1.36;100.00;103570.16;5049298;28;20033;-74
2023/01/24 06:26:25;;;;;;;26.90;15.50;;;;;;;1.37;100.00;103565.88;5051490;28;20389;-74
2023/01/24 06:28:51;;;;;;;25.25;15.10;;;;;;;1.38;100.00;103570.28;5064347;28;20037;-74
2023/01/24 06:31:37;;;;;;;30.00;14.77;;;;;;;1.34;100.00;103572.59;5063756;28;20021;-75
2023/01/24 06:34:21;;;;;;;27.63;15.82;;;;;;;1.37;100.00;103578.84;5058130;28;20024;-74
2023/01/24 06:36:51;;;;;;;29.35;14.77;;;;;;;1.40;100.00;103581.72;5060641;28;20037;-72
2023/01/24 06:39:16;;;;;;;30.67;15.30;;;;;;;1.37;100.00;103584.03;5039974;28;20041;-75
2023/01/24 06:41:42;;;;;;;30.38;16.33;;;;;;;1.35;100.00;103584.78;5045393;28;20079;-74
2023/01/24 06:44:10;;;;;;;26.60;15.45;;;;;;;1.36;100.00;103585.72;5049710;28;20029;-73
2023/01/24 06:46:35;;;;;;;28.75;16.00;;;;;;;1.33;100.00;103585.44;5048364;28;20086;-74
2023/01/24 06:49:01;;;;;;;29.25;15.98;;;;;;;1.34;100.00;103582.03;5047246;28;20603;-72
2023/01/24 06:51:26;;;;;;;28.85;15.07;;;;;;;1.34;100.00;103588.16;5055083;28;20049;-73
2023/01/24 06:53:51;;;;;;;27.27;15.48;;;;;;;1.34;100.00;103589.81;5044482;28;20025;-74
2023/01/24 06:56:17;;;;;;;26.15;15.25;;;;;;;1.29;100.00;103589.38;5050857;28;20444;-74
2023/01/24 06:58:42;;;;;;;28.55;15.30;;;;;;;1.36;100.00;103590.91;5050681;28;20515;-74
2023/01/24 07:01:07;;;;;;;30.55;14.70;;;;;;;1.35;100.00;103589.97;5049939;28;20444;-73
2023/01/24 07:03:33;;;;;;;26.48;14.75;;;;;;;1.30;100.00;103579.91;5052757;28;20430;-75
2023/01/24 07:05:58;;;;;;;23.90;14.32;;;;;;;1.25;100.00;103586.31;5053491;28;20024;-74
2023/01/24 07:08:24;;;;;;;24.75;15.05;;;;;;;1.26;100.00;103589.09;5055267;28;20031;-75
2023/01/24 07:10:49;;;;;;;25.55;15.07;;;;;;;1.20;100.00;103587.56;5051518;28;20029;-75
2023/01/24 07:13:15;;;;;;;27.05;14.90;;;;;;;1.22;100.00;103586.97;5052600;28;20465;-74
2023/01/24 07:15:40;;;;;;;29.40;15.07;;;;;;;1.18;100.00;103590.91;5053867;28;20033;-74
2023/01/24 07:18:07;;;;;;;30.33;16.02;;;;;;;1.21;100.00;103589.38;5049836;28;20072;-74
2023/01/24 07:20:33;;;;;;;27.88;15.45;;;;;;;1.18;100.00;103598.69;5052443;28;20418;-75
2023/01/24 07:22:59;;;;;;;29.40;14.93;;;;;;;1.19;100.00;103597.00;5051058;28;20028;-75
2023/01/24 07:25:26;;;;;;;32.00;16.02;;;;;;;1.17;100.00;103603.75;5051690;28;20079;-75
2023/01/24 07:27:52;;;;;;;28.75;16.20;;;;;;;1.15;100.00;103602.66;5051596;28;20099;-75
2023/01/24 07:30:17;;;;;;;28.20;14.93;;;;;;;1.18;100.00;103600.34;5049091;28;20152;-73
2023/01/24 07:32:43;;;;;;;25.48;14.38;;;;;;;1.16;100.00;103604.50;5048454;28;20116;-74
2023/01/24 07:35:08;;;;;;;26.30;15.15;;;;;;;1.13;100.00;103606.78;5050516;28;20358;-74
2023/01/24 07:37:34;;;;;;;31.38;16.08;;;;;;;1.12;100.00;103604.94;5051644;28;20458;-74
2023/01/24 07:39:59;;;;;;;32.55;16.08;;;;;;;1.13;100.00;103610.28;5053706;28;20025;-74
2023/01/24 07:42:25;;;;;;;27.42;14.90;;;;;;;1.16;100.00;103612.28;5051833;28;20017;-74
2023/01/24 07:44:50;;;;;;;24.27;14.20;;;;;;;1.23;100.00;103613.81;5055430;28;20056;-74
2023/01/24 07:47:16;;;;;;;26.75;15.27;;;;;;;1.17;100.00;103609.81;5055168;28;20102;-74
2023/01/24 07:49:41;;;;;;;30.85;15.93;;;;;;;1.18;100.00;103618.50;5065789;28;20495;-74
2023/01/24 07:52:07;;;;;;;26.45;15.40;;;;;;;1.13;100.00;103623.25;5048464;28;20038;-74
2023/01/24 07:54:33;;;;;;;29.85;15.82;;;;;;;1.11;100.00;103619.59;5054063;28;20040;-75
2023/01/24 07:56:59;;;;;;;29.00;16.10;;;;;;;1.15;100.00;103623.41;5074871;28;20021;-75
2023/01/24 07:59:24;;;;;;;27.17;15.38;;;;;;;1.16;100.00;103633.03;5065835;28;20506;-75
2023/01/24 08:01:50;;;;;;;33.00;16.65;;;;;;;1.14;100.00;103629.34;5053962;28;20029;-75
2023/01/24 08:04:15;;;;;;;29.33;15.95;;;;;;;1.17;100.00;103629.66;5053160;28;20119;-74
2023/01/24 08:07:16;;;;;;;33.58;18.17;;;;;;;1.10;100.00;103637.56;5052958;28;20064;-75
2023/01/24 08:09:29;;;;;;;33.38;17.73;;;;;;;1.08;100.00;103642.63;5055241;28;20497;-75
2023/01/24 08:11:55;;;;;;;32.70;17.55;;;;;;;0.98;100.00;103643.38;5053881;28;20025;-74
2023/01/24 08:14:21;;;;;;;33.17;18.38;;;;;;;0.98;100.00;103637.28;5053605;28;20052;-76
2023/01/24 08:16:47;;;;;;;33.08;17.52;;;;;;;1.06;100.00;103643.22;5054577;28;20083;-74
2023/01/24 08:19:14;;;;;;;32.20;16.77;;;;;;;1.08;100.00;103640.03;5066060;28;20025;-74
2023/01/24 08:21:39;;;;;;;34.28;17.65;;;;;;;1.00;100.00;103638.34;5054335;28;20028;-76
2023/01/24 08:24:05;;;;;;;32.40;17.88;;;;;;;1.07;100.00;103642.47;5057201;28;20020;-74
2023/01/24 08:26:31;;;;;;;36.38;18.55;;;;;;;1.07;100.00;103642.47;5073944;28;20086;-76
2023/01/24 08:28:56;;;;;;;30.65;17.13;;;;;;;1.04;100.00;103644.75;5075130;28;20028;-75
2023/01/24 08:31:21;;;;;;;31.95;17.30;;;;;;;1.05;100.00;103654.38;5071163;28;20044;-75
2023/01/24 08:33:46;;;;;;;29.40;15.60;;;;;;;1.07;100.00;103648.59;5068328;28;20060;-75
2023/01/24 08:36:12;;;;;;;30.80;17.77;;;;;;;1.08;100.00;103650.41;5059664;28;20025;-76
2023/01/24 08:38:37;;;;;;;35.45;17.70;;;;;;;1.03;100.00;103655.88;5054580;28;20024;-74
2023/01/24 08:41:03;;;;;;;31.30;16.42;;;;;;;1.09;100.00;103651.34;5059064;28;20040;-75
2023/01/24 08:43:29;;;;;;;33.28;16.67;;;;;;;1.10;100.00;103659.25;5054880;28;20017;-76
2023/01/24 08:45:55;;;;;;;36.22;17.75;;;;;;;1.07;100.00;103653.78;5054003;28;20075;-75
2023/01/24 08:48:20;;;;;;;33.45;17.23;;;;;;;1.12;100.00;103662.91;5053917;28;20035;-75
2023/01/24 08:50:46;;;;;;;33.05;17.35;;;;;;;1.18;100.00;103667.78;5066303;28;20031;-73
2023/01/24 08:53:11;;;;;;;30.35;16.02;;;;;;;1.20;100.00;103667.97;5057057;28;20668;-74
2023/01/24 08:55:36;;;;;;;32.53;16.90;;;;;;;1.17;100.00;103656.50;5053903;28;20499;-74
2023/01/24 08:58:03;;;;;;;33.70;17.00;;;;;;;1.13;100.00;103664.75;5055840;28;20046;-74
2023/01/24 09:00:29;;;;;;;31.92;16.27;;;;;;;1.10;100.00;103666.09;5068712;28;20021;-75
2023/01/24 09:02:58;;;;;;;32.25;16.80;;;;;;;1.12;100.00;103672.38;5050764;28;20028;-75
2023/01/24 09:05:23;;;;;;;36.95;17.10;;;;;;;1.13;100.00;103675.13;5064202;28;20051;-76
2023/01/24 09:07:49;;;;;;;28.50;16.13;;;;;;;1.18;100.00;103675.56;5055552;28;20025;-75
2023/01/24 09:10:14;;;;;;;29.67;16.65;;;;;;;1.22;100.00;103667.38;5060124;28;20039;-74
2023/01/24 09:12:43;;;;;;;32.67;16.83;;;;;;;1.20;100.00;103674.06;5055013;28;20060;-75
2023/01/24 09:15:09;;;;;;;33.42;16.88;;;;;;;1.17;100.00;103676.34;5055565;28;20028;-76
2023/01/24 09:17:34;;;;;;;27.40;15.35;;;;;;;1.13;100.00;103674.22;5050966;28;20086;-75
2023/01/24 09:20:03;;;;;;;30.23;16.23;;;;;;;1.06;100.00;103676.94;5055162;28;20118;-75
2023/01/24 09:22:28;;;;;;;34.65;17.00;;;;;;;1.00;100.00;103672.97;5067808;28;20024;-74
2023/01/24 09:24:53;;;;;;;30.25;16.73;;;;;;;1.03;100.00;103681.81;5053401;28;20029;-75
2023/01/24 09:27:19;;;;;;;31.15;16.23;;;;;;;1.06;100.00;103675.28;5058136;28;20020;-75
2023/01/24 09:29:44;;;;;;;28.60;16.20;;;;;;;1.07;100.00;103684.88;5063350;28;20116;-76
2023/01/24 09:32:10;;;;;;;29.10;15.30;;;;;;;1.03;100.00;103687.91;5056933;28;20028;-75
2023/01/24 09:34:35;;;;;;;31.35;15.57;;;;;;;1.09;100.00;103679.84;5062048;28;20036;-74
2023/01/24 09:37:01;;;;;;;37.85;16.70;;;;;;;1.08;100.00;103685.78;5053287;28;20048;-76
2023/01/24 09:39:26;;;;;;;28.67;14.05;;;;;;;1.15;100.00;103688.22;5055569;28;20024;-75
2023/01/24 09:42:15;;;;;;;36.72;16.63;;;;;;;1.16;100.00;103695.25;5063366;28;20480;-75
2023/01/24 09:45:07;;;;;;;29.10;14.93;;;;;;;1.14;100.00;103695.13;5042568;28;20480;-76
2023/01/24 09:47:47;;;;;;;29.75;15.90;;;;;;;1.15;100.00;103693.41;5054459;28;20024;-76
2023/01/24 09:50:42;;;;;;;31.80;16.35;;;;;;;1.17;100.00;103692.81;5039688;28;20082;-74
2023/01/24 09:53:22;;;;;;;29.73;15.05;;;;;;;1.12;100.00;103703.50;5049399;28;20380;-74
2023/01/24 09:55:48;;;;;;;33.53;16.25;;;;;;;1.11;100.00;103697.41;5055382;28;20376;-73
2023/01/24 09:58:31;;;;;;;29.98;15.25;;;;;;;1.15;100.00;103703.78;5063827;28;20028;-74
2023/01/24 10:01:08;;;;;;;28.05;15.25;;;;;;;1.14;100.00;103696.78;5054638;28;20040;-75
2023/01/24 10:03:36;;;;;;;30.33;15.43;;;;;;;1.17;100.00;103700.59;5064035;28;20041;-74
2023/01/24 10:06:15;;;;;;;26.73;14.65;;;;;;;1.13;100.00;103706.25;5060420;28;20059;-74
2023/01/24 10:09:02;;;;;;;25.13;14.15;;;;;;;1.13;100.00;103705.34;5058040;28;20039;-74
2023/01/24 10:11:58;;;;;;;32.42;15.15;;;;;;;1.11;100.00;103702.59;5063899;28;20085;-75
2023/01/24 10:14:56;;;;;;;30.20;15.73;;;;;;;1.13;100.00;103697.56;5058606;28;20055;-73
2023/01/24 10:17:53;;;;;;;28.75;15.25;;;;;;;1.09;100.00;103708.38;5062552;28;20031;-75
2023/01/24 10:20:33;;;;;;;30.33;15.30;;;;;;;1.17;100.00;103707.47;5048936;28;20051;-75
2023/01/24 10:23:11;;;;;;;27.63;14.63;;;;;;;1.18;100.00;103699.84;5035618;28;20027;-74
2023/01/24 10:25:48;;;;;;;31.70;16.40;;;;;;;1.14;100.00;103696.78;5045975;28;20044;-75
2023/01/24 10:28:34;;;;;;;28.73;15.45;;;;;;;1.13;100.00;103700.16;5043474;28;20028;-74
2023/01/24 10:31:14;;;;;;;31.25;14.57;;;;;;;1.15;100.00;103703.78;5065601;28;20046;-73
2023/01/24 10:33:54;;;;;;;28.50;14.98;;;;;;;1.11;100.00;103701.66;5054905;28;20027;-74
2023/01/24 10:36:37;;;;;;;32.17;15.80;;;;;;;1.15;100.00;103701.19;5067927;28;20025;-73
2023/01/24 10:39:03;;;;;;;27.80;14.07;;;;;;;1.11;100.00;103699.06;5051825;28;20021;-75
2023/01/24 10:41:32;;;;;;;31.00;15.73;;;;;;;1.13;100.00;103706.25;5052210;28;20496;-74
2023/01/24 10:44:39;;;;;;;29.00;15.55;;;;;;;1.15;100.00;103689.16;5062089;28;20031;-74
2023/01/24 10:47:26;;;;;;;30.20;15.13;;;;;;;1.25;100.00;103685.81;4998759;28;20438;-75
2023/01/24 10:50:06;;;;;;;32.15;15.93;;;;;;;1.19;100.00;103680.00;5065355;28;20040;-74
2023/01/24 10:52:33;;;;;;;29.35;16.08;;;;;;;1.24;100.00;103681.38;5051172;28;20060;-76
2023/01/24 10:55:01;;;;;;;33.17;16.17;;;;;;;1.19;100.00;103682.59;5048956;28;20080;-76
2023/01/24 10:57:35;;;;;;;33.83;16.88;;;;;;;1.21;100.00;103686.28;5064359;28;20319;-75
2023/01/24 11:00:16;;;;;;;35.45;15.85;;;;;;;1.18;100.00;103681.69;5057319;28;20131;-75
2023/01/24 11:02:46;;;;;;;29.10;15.35;;;;;;;1.21;100.00;103687.94;5051837;28;20473;-76
2023/01/24 11:05:13;;;;;;;33.80;16.33;;;;;;;1.21;100.00;103672.38;5053135;28;20044;-76
2023/01/24 11:07:46;;;;;;;29.88;15.35;;;;;;;1.21;100.00;103673.31;5066441;28;20447;-76
2023/01/24 11:10:27;;;;;;;29.67;15.10;;;;;;;1.26;100.00;103676.34;5056102;28;20101;-76
2023/01/24 11:12:56;;;;;;;27.75;15.63;;;;;;;1.26;100.00;103668.56;5063620;28;20419;-76
2023/01/24 11:15:30;;;;;;;29.02;15.93;;;;;;;1.28;100.00;103675.75;5060934;28;20110;-76
2023/01/24 11:18:10;;;;;;;27.55;14.95;;;;;;;1.37;100.00;103680.94;5058329;28;20083;-76
2023/01/24 11:20:36;;;;;;;30.77;17.00;;;;;;;1.33;100.00;103668.44;5062337;28;20029;-77
2023/01/24 11:23:11;;;;;;;29.08;15.63;;;;;;;1.33;100.00;103669.34;5055655;28;20389;-77
2023/01/24 11:25:50;;;;;;;33.42;16.63;;;;;;;1.32;100.00;103661.41;5053797;28;20048;-75
2023/01/24 11:28:27;;;;;;;29.38;16.08;;;;;;;1.37;100.00;103659.25;5054114;28;20035;-75
2023/01/24 11:30:56;;;;;;;29.63;15.98;;;;;;;1.29;100.00;103662.03;5057139;28;20021;-75
2023/01/24 11:33:43;;;;;;;30.25;15.18;;;;;;;1.32;100.00;103661.41;5065306;28;20368;-76
2023/01/24 11:36:26;;;;;;;28.00;15.82;;;;;;;1.37;100.00;103655.00;5054253;28;20044;-76
2023/01/24 11:38:57;;;;;;;27.65;14.90;;;;;;;1.38;100.00;103650.72;5053301;28;20066;-76
2023/01/24 11:41:35;;;;;;;29.73;16.20;;;;;;;1.38;100.00;103651.63;5054315;28;20438;-75
2023/01/24 11:44:36;;;;;;;30.85;17.15;;;;;;;1.31;100.00;103657.88;5054382;28;20032;-75
2023/01/24 11:47:21;;;;;;;28.35;15.77;;;;;;;1.32;100.00;103654.53;5051320;28;20376;-76
2023/01/24 11:49:56;;;;;;;30.33;15.23;;;;;;;1.31;100.00;103650.09;5055947;28;20025;-76
2023/01/24 11:52:49;;;;;;;28.52;16.20;;;;;;;1.30;100.00;103643.09;5050370;28;20037;-76
2023/01/24 11:55:18;;;;;;;31.33;16.60;;;;;;;1.33;100.00;103637.31;5077789;28;20028;-75